Time;durP1;ratioP1;P1;durP2;ratioP2;P2;SDS_P1;SDS_P2;PMS_P1;PMS_P2;Temp;Humidity;BMP_temperature;BMP_pressure;BME280_temperature;BME280_humidity;BME280_pressure;Samples;Min_cycle;Max_cycle;Signal;HPM_P1;HPM_P2
2023/05/29 00:00:36;;;;;;;10.85;3.03;;;;;;;9.72;100.00;98758.88;5139220;28;20154;-52
2023/05/29 00:03:04;;;;;;;17.85;3.63;;;;;;;9.70;100.00;98767.47;5139282;28;20043;-59
2023/05/29 00:05:30;;;;;;;16.25;3.13;;;;;;;9.68;100.00;98758.03;5139439;27;20050;-59
2023/05/29 00:07:56;;;;;;;7.82;3.35;;;;;;;9.47;100.00;98742.88;5139424;28;20115;-55
2023/05/29 00:10:23;;;;;;;10.23;3.67;;;;;;;9.47;100.00;98728.41;5139046;27;20059;-53
2023/05/29 00:12:49;;;;;;;4.70;3.13;;;;;;;9.55;100.00;98735.56;5139125;28;20086;-52
2023/05/29 00:15:15;;;;;;;5.70;3.03;;;;;;;9.40;100.00;98715.41;5139478;28;20043;-55
2023/05/29 00:17:42;;;;;;;14.98;3.90;;;;;;;9.50;100.00;98730.41;5139206;28;20047;-56
2023/05/29 00:20:10;;;;;;;6.93;2.58;;;;;;;9.51;100.00;98727.28;5139111;28;20051;-60
2023/05/29 00:22:37;;;;;;;8.45;3.45;;;;;;;9.49;100.00;98718.66;5139015;28;20058;-54
2023/05/29 00:25:03;;;;;;;5.93;3.33;;;;;;;9.38;100.00;98718.50;5138914;28;20047;-59
2023/05/29 00:27:30;;;;;;;11.75;3.28;;;;;;;9.42;100.00;98724.81;5139139;28;20099;-54
2023/05/29 00:29:55;;;;;;;7.93;3.13;;;;;;;9.38;100.00;98715.75;5138855;28;20145;-55
2023/05/29 00:32:21;;;;;;;11.80;3.05;;;;;;;9.35;100.00;98712.97;5139050;28;20079;-55
2023/05/29 00:34:47;;;;;;;9.15;3.97;;;;;;;9.32;100.00;98709.00;5138931;28;20143;-58
2023/05/29 00:37:13;;;;;;;11.23;3.20;;;;;;;9.31;100.00;98714.88;5138713;27;20374;-60
2023/05/29 00:39:39;;;;;;;6.85;3.28;;;;;;;9.31;100.00;98723.06;5138593;28;20055;-60
2023/05/29 00:42:06;;;;;;;8.85;3.55;;;;;;;9.29;100.00;98734.38;5138885;28;20043;-52
2023/05/29 00:44:32;;;;;;;6.53;2.83;;;;;;;9.31;100.00;98723.88;5138638;28;20355;-52
2023/05/29 00:46:59;;;;;;;12.25;3.95;;;;;;;9.31;100.00;98718.38;5138760;28;20393;-52
2023/05/29 00:49:26;;;;;;;6.60;2.65;;;;;;;9.28;100.00;98716.38;5138680;28;20059;-56
2023/05/29 00:51:53;;;;;;;8.43;3.00;;;;;;;9.28;100.00;98697.25;5138532;28;20047;-59
2023/05/29 00:54:23;;;;;;;6.45;3.17;;;;;;;9.22;100.00;98700.66;5138495;28;20047;-55
2023/05/29 00:56:49;;;;;;;10.85;3.25;;;;;;;9.25;100.00;98705.41;5138446;28;20137;-61
2023/05/29 00:59:15;;;;;;;12.43;3.53;;;;;;;9.21;100.00;98699.09;5138260;28;20203;-52
2023/05/29 01:01:43;;;;;;;8.45;3.55;;;;;;;9.12;100.00;98705.56;5138580;28;20058;-58
2023/05/29 01:04:12;;;;;;;10.23;3.33;;;;;;;8.98;100.00;98685.44;5138315;28;20051;-59
2023/05/29 01:06:41;;;;;;;9.73;3.70;;;;;;;8.93;100.00;98662.72;5138226;27;20332;-52
2023/05/29 01:09:07;;;;;;;15.27;3.50;;;;;;;8.88;100.00;98651.28;5138368;28;20421;-51
2023/05/29 01:11:46;;;;;;;9.50;3.75;;;;;;;8.84;100.00;98655.91;5138343;28;20097;-60
2023/05/29 01:14:25;;;;;;;14.55;3.65;;;;;;;8.92;100.00;98644.72;5138329;28;20049;-55
2023/05/29 01:17:03;;;;;;;10.90;3.47;;;;;;;8.94;100.00;98661.56;5138127;28;20084;-57
2023/05/29 01:19:46;;;;;;;15.25;4.03;;;;;;;8.89;100.00;98641.94;5138276;28;20597;-58
2023/05/29 01:22:20;;;;;;;10.20;3.83;;;;;;;8.93;100.00;98643.59;5137369;27;20050;-55
2023/05/29 01:24:50;;;;;;;8.43;3.58;;;;;;;8.97;100.00;98645.59;5138136;28;20153;-51
2023/05/29 01:27:19;;;;;;;8.00;3.42;;;;;;;8.92;100.00;98663.84;5138054;28;20047;-54
2023/05/29 01:29:47;;;;;;;13.63;3.45;;;;;;;8.93;100.00;98672.88;5138092;28;20092;-58
2023/05/29 01:32:13;;;;;;;14.93;3.60;;;;;;;8.93;100.00;98670.91;5137943;28;20364;-54
2023/05/29 01:34:39;;;;;;;14.50;3.65;;;;;;;8.93;100.00;98664.66;5137900;28;20047;-57
2023/05/29 01:37:05;;;;;;;15.82;3.83;;;;;;;8.90;100.00;98640.78;5137739;27;20051;-59
2023/05/29 01:39:32;;;;;;;9.45;3.85;;;;;;;8.87;100.00;98638.78;5137683;27;20051;-58
2023/05/29 01:42:00;;;;;;;7.15;3.28;;;;;;;8.88;100.00;98645.81;5137881;28;20043;-52
2023/05/29 01:44:28;;;;;;;15.38;3.85;;;;;;;8.88;100.00;98629.44;5137912;28;20420;-53
2023/05/29 01:46:54;;;;;;;17.15;3.95;;;;;;;8.87;100.00;98630.59;5137925;28;20047;-55
2023/05/29 01:49:23;;;;;;;12.57;4.63;;;;;;;8.88;100.00;98634.88;5137786;28;20054;-58
2023/05/29 01:51:49;;;;;;;11.18;3.97;;;;;;;8.84;100.00;98634.06;5137736;28;20099;-55
2023/05/29 01:54:15;;;;;;;11.70;3.67;;;;;;;8.85;100.00;98650.06;5137737;28;20074;-59
2023/05/29 01:56:42;;;;;;;11.93;3.85;;;;;;;8.83;100.00;98621.53;5137505;28;20137;-56
2023/05/29 01:59:10;;;;;;;10.57;3.78;;;;;;;8.82;100.00;98623.47;5137392;28;20492;-60
2023/05/29 02:01:39;;;;;;;13.43;3.67;;;;;;;8.81;100.00;98610.97;5137530;28;20057;-51
2023/05/29 02:04:04;;;;;;;11.68;3.83;;;;;;;8.82;100.00;98626.19;5137394;28;20137;-53
2023/05/29 02:06:33;;;;;;;11.25;3.47;;;;;;;8.78;100.00;98636.28;5137293;27;20138;-51
2023/05/29 02:08:59;;;;;;;16.25;4.43;;;;;;;8.75;100.00;98650.69;5137301;28;20138;-56
2023/05/29 02:11:26;;;;;;;12.38;4.13;;;;;;;8.74;100.00;98651.06;5137275;28;20435;-55
2023/05/29 02:13:52;;;;;;;16.92;4.03;;;;;;;8.70;100.00;98646.31;5137465;27;20051;-60
2023/05/29 02:16:20;;;;;;;7.93;3.80;;;;;;;8.69;100.00;98639.25;5137799;28;20067;-52
2023/05/29 02:18:46;;;;;;;13.73;4.43;;;;;;;8.78;100.00;98635.50;5137413;28;20133;-59
2023/05/29 02:21:12;;;;;;;7.82;3.47;;;;;;;8.80;100.00;98636.72;5137222;28;20055;-59
2023/05/29 02:23:38;;;;;;;6.25;3.38;;;;;;;8.84;100.00;98631.31;5137285;28;20103;-52
2023/05/29 02:26:04;;;;;;;7.78;3.72;;;;;;;8.92;100.00;98633.00;5137200;28;20401;-52
2023/05/29 02:28:30;;;;;;;20.77;4.40;;;;;;;8.90;100.00;98625.19;5137188;28;20058;-59
2023/05/29 02:30:56;;;;;;;12.25;3.95;;;;;;;9.03;100.00;98633.97;5137112;28;20394;-60
2023/05/29 02:33:22;;;;;;;9.60;3.80;;;;;;;9.29;100.00;98632.38;5138815;27;20051;-59
2023/05/29 02:35:49;;;;;;;9.65;3.47;;;;;;;9.67;100.00;98669.66;5140638;27;20047;-53
2023/05/29 02:38:15;;;;;;;14.05;3.47;;;;;;;10.05;100.00;98712.38;5140629;28;20382;-53
2023/05/29 02:40:41;;;;;;;9.20;3.45;;;;;;;10.44;100.00;98769.66;5140793;28;20054;-51
2023/05/29 02:43:09;;;;;;;12.00;3.72;;;;;;;10.65;100.00;98829.41;5140795;28;20130;-54
2023/05/29 02:45:35;;;;;;;7.40;3.60;;;;;;;10.87;100.00;98868.06;5140767;28;20141;-52
2023/05/29 02:48:01;;;;;;;9.38;4.05;;;;;;;11.07;100.00;98894.16;5140525;28;20051;-52
2023/05/29 02:50:27;;;;;;;10.05;3.80;;;;;;;11.28;100.00;98924.56;5140646;28;20051;-52
2023/05/29 02:52:54;;;;;;;8.23;3.78;;;;;;;11.50;100.00;98947.56;5140831;28;20156;-51
2023/05/29 02:55:20;;;;;;;16.52;3.53;;;;;;;11.84;100.00;98971.44;5140463;28;20047;-53
2023/05/29 02:57:48;;;;;;;13.32;3.80;;;;;;;12.01;100.00;98993.59;5140669;28;20047;-52
2023/05/29 03:00:15;;;;;;;8.02;3.60;;;;;;;12.23;100.00;99013.03;5140243;28;20050;-55
2023/05/29 03:02:41;;;;;;;7.13;3.22;;;;;;;12.69;100.00;99024.41;5140263;28;20139;-51
2023/05/29 03:05:07;;;;;;;9.40;4.00;;;;;;;12.74;100.00;99047.22;5140148;27;20129;-54
2023/05/29 03:07:33;;;;;;;8.38;3.08;;;;;;;12.90;100.00;99065.00;5140252;28;20066;-55
2023/05/29 03:10:00;;;;;;;11.07;2.88;;;;;;;13.13;100.00;99077.75;5140371;28;20082;-58
2023/05/29 03:12:27;;;;;;;8.70;3.15;;;;;;;13.38;100.00;99106.22;5140126;28;20047;-52
2023/05/29 03:14:53;;;;;;;7.05;3.58;;;;;;;13.46;100.00;99118.06;5140008;28;20050;-54
2023/05/29 03:17:20;;;;;;;11.20;2.70;;;;;;;13.69;100.00;99128.00;5140169;28;20080;-52
2023/05/29 03:19:46;;;;;;;14.25;3.47;;;;;;;13.94;100.00;99128.13;5140046;28;20217;-56
2023/05/29 03:22:12;;;;;;;6.30;3.15;;;;;;;14.08;100.00;99134.47;5140071;28;20111;-53
2023/05/29 03:24:38;;;;;;;11.45;3.00;;;;;;;14.32;100.00;99148.72;5139942;28;20082;-53
2023/05/29 03:27:05;;;;;;;16.08;3.63;;;;;;;14.55;100.00;99142.88;5139945;28;20042;-52
2023/05/29 03:29:31;;;;;;;9.85;3.28;;;;;;;14.66;100.00;99145.66;5140214;28;20115;-60
2023/05/29 03:31:57;;;;;;;9.43;2.92;;;;;;;15.05;100.00;99153.94;5139779;28;20046;-58
2023/05/29 03:34:23;;;;;;;8.90;3.33;;;;;;;15.42;100.00;99152.72;5139805;28;20089;-60
2023/05/29 03:36:49;;;;;;;13.45;3.60;;;;;;;15.41;100.00;99164.97;5139595;27;20142;-61
2023/05/29 03:39:15;;;;;;;12.20;3.20;;;;;;;15.52;100.00;99160.19;5139831;28;20184;-56
2023/05/29 03:41:41;;;;;;;13.60;3.30;;;;;;;15.76;100.00;99162.16;5139882;28;20075;-58
2023/05/29 03:44:09;;;;;;;6.78;3.38;;;;;;;15.97;100.00;99166.81;5139246;27;20350;-59
2023/05/29 03:46:35;;;;;;;11.20;3.65;;;;;;;16.30;97.46;99183.25;5139692;28;20047;-51
2023/05/29 03:49:01;;;;;;;7.88;3.65;;;;;;;16.48;97.08;99184.72;5139684;28;20449;-52
2023/05/29 03:51:27;;;;;;;11.82;3.78;;;;;;;16.83;97.39;99187.72;5139582;28;20043;-55
2023/05/29 03:53:53;;;;;;;10.70;3.20;;;;;;;17.16;96.60;99189.06;5139529;27;20104;-59
2023/05/29 03:56:19;;;;;;;10.55;3.10;;;;;;;17.09;96.59;99192.66;5139493;28;20078;-60
2023/05/29 03:58:45;;;;;;;8.38;4.63;;;;;;;17.58;91.94;99210.03;5139474;28;20085;-59
2023/05/29 04:01:11;;;;;;;10.80;3.72;;;;;;;17.60;89.65;99210.41;5139589;28;20476;-56
2023/05/29 04:03:37;;;;;;;12.60;2.83;;;;;;;17.89;87.69;99215.66;5139281;28;20054;-59
2023/05/29 04:06:04;;;;;;;4.93;2.85;;;;;;;18.24;88.22;99216.47;5139234;27;20054;-54
2023/05/29 04:08:30;;;;;;;5.80;2.53;;;;;;;18.27;85.09;99227.53;5139505;28;20077;-52
2023/05/29 04:10:56;;;;;;;11.85;3.28;;;;;;;18.48;86.78;99220.91;5139220;28;20424;-55
2023/05/29 04:13:22;;;;;;;9.80;3.00;;;;;;;18.41;84.19;99232.09;5139150;28;20047;-58
2023/05/29 04:15:48;;;;;;;11.57;2.88;;;;;;;18.81;83.95;99224.06;5139073;28;20058;-59
2023/05/29 04:18:14;;;;;;;14.32;3.58;;;;;;;19.00;82.37;99228.16;5139198;28;20138;-59
2023/05/29 04:20:40;;;;;;;19.15;3.22;;;;;;;19.21;81.40;99227.03;5138991;28;20058;-60
2023/05/29 04:23:06;;;;;;;9.05;3.00;;;;;;;19.40;80.76;99229.09;5139112;28;20062;-59
2023/05/29 04:25:32;;;;;;;6.55;3.25;;;;;;;19.74;75.57;99242.81;5139298;28;20058;-57
2023/05/29 04:28:00;;;;;;;9.40;3.15;;;;;;;19.60;76.27;99245.03;5138989;28;20133;-55
2023/05/29 04:30:26;;;;;;;14.63;4.88;;;;;;;20.51;75.16;99242.94;5138930;28;20047;-56
2023/05/29 04:32:53;;;;;;;11.85;3.80;;;;;;;20.47;74.44;99239.44;5138790;27;20070;-58
2023/05/29 04:35:19;;;;;;;6.95;3.13;;;;;;;20.66;71.94;99239.44;5138649;27;20468;-60
2023/05/29 04:37:45;;;;;;;11.10;3.05;;;;;;;20.98;72.63;99235.13;5138669;28;20472;-56
2023/05/29 04:40:13;;;;;;;7.93;3.03;;;;;;;21.26;68.49;99239.25;5138406;28;20093;-51
2023/05/29 04:42:40;;;;;;;12.75;5.25;;;;;;;21.33;71.24;99238.28;5138740;28;20080;-57
2023/05/29 04:45:06;;;;;;;13.73;3.58;;;;;;;21.60;69.07;99238.03;5138514;28;20054;-57
2023/05/29 04:47:32;;;;;;;12.63;5.15;;;;;;;21.51;69.48;99230.28;5138641;28;20054;-59
2023/05/29 04:49:59;;;;;;;14.18;3.97;;;;;;;21.83;66.76;99235.03;5138428;28;20137;-59
2023/05/29 04:52:26;;;;;;;20.48;5.80;;;;;;;21.72;64.14;99236.50;5138411;28;20130;-58
2023/05/29 04:54:52;;;;;;;16.92;4.97;;;;;;;22.16;65.62;99234.16;5138611;28;20512;-58
2023/05/29 04:57:18;;;;;;;12.90;3.30;;;;;;;22.10;65.52;99231.09;5137170;27;20332;-53
2023/05/29 04:59:44;;;;;;;20.58;6.40;;;;;;;22.67;60.37;99245.44;5138095;27;20047;-56
2023/05/29 05:02:10;;;;;;;18.40;4.95;;;;;;;22.60;60.03;99245.66;5138086;28;20051;-56
2023/05/29 05:04:36;;;;;;;13.45;4.78;;;;;;;22.51;59.73;99247.09;5138107;28;20075;-58
2023/05/29 05:07:03;;;;;;;26.40;4.18;;;;;;;23.04;59.11;99248.75;5138934;27;20057;-54
2023/05/29 05:09:29;;;;;;;18.83;4.70;;;;;;;23.60;58.68;99248.09;5138404;28;20051;-56
2023/05/29 05:11:55;;;;;;;19.77;4.55;;;;;;;23.22;58.53;99258.09;5138277;28;20344;-56
2023/05/29 05:14:21;;;;;;;20.63;5.80;;;;;;;23.98;58.25;99259.19;5137992;28;20066;-60
2023/05/29 05:16:55;;;;;;;24.00;6.25;;;;;;;24.03;57.97;99261.44;5218090;27;20151;-59
2023/05/29 05:19:22;;;;;;;21.58;6.72;;;;;;;24.02;58.85;99259.06;5196377;27;20046;-55
2023/05/29 05:21:48;;;;;;;26.95;7.30;;;;;;;24.23;56.67;99269.53;5196505;27;20110;-59
2023/05/29 05:24:14;;;;;;;38.75;8.15;;;;;;;24.38;55.44;99266.97;5196283;27;20050;-62
2023/05/29 05:26:40;;;;;;;22.75;8.15;;;;;;;25.11;54.62;99272.22;5196516;27;20050;-59
2023/05/29 05:29:05;;;;;;;21.50;8.05;;;;;;;24.88;54.89;99267.91;5196821;27;20314;-55
2023/05/29 05:31:31;;;;;;;24.85;6.82;;;;;;;25.70;53.99;99269.44;5196282;27;20073;-52
2023/05/29 05:33:58;;;;;;;19.75;6.72;;;;;;;25.48;54.68;99272.34;5196558;27;20060;-52
2023/05/29 05:36:24;;;;;;;18.45;6.15;;;;;;;25.75;54.47;99271.63;5184475;27;20054;-55
2023/05/29 05:38:50;;;;;;;11.38;4.13;;;;;;;25.91;52.93;99270.59;5175469;27;20143;-53
2023/05/29 05:41:16;;;;;;;11.65;4.00;;;;;;;26.15;51.43;99267.94;5175003;27;20050;-57
2023/05/29 05:43:42;;;;;;;11.70;3.67;;;;;;;26.33;50.88;99265.13;5174986;27;20080;-58
2023/05/29 05:46:08;;;;;;;14.30;3.88;;;;;;;26.36;51.11;99269.78;5174928;27;20072;-59
2023/05/29 05:48:34;;;;;;;8.25;3.38;;;;;;;26.21;50.01;99266.06;5175318;27;20137;-60
2023/05/29 05:51:00;;;;;;;8.93;3.75;;;;;;;26.20;50.43;99272.94;5175151;27;20050;-53
2023/05/29 05:53:26;;;;;;;11.30;3.25;;;;;;;26.22;50.39;99274.00;5175137;27;20050;-55
2023/05/29 05:55:52;;;;;;;11.25;3.63;;;;;;;26.50;51.22;99274.03;5174703;27;20399;-52
2023/05/29 05:58:18;;;;;;;11.60;3.22;;;;;;;26.65;50.88;99274.91;5174988;27;20078;-52
2023/05/29 06:00:44;;;;;;;12.15;3.13;;;;;;;26.82;49.84;99274.56;5175063;27;20193;-52
2023/05/29 06:03:10;;;;;;;8.52;2.88;;;;;;;27.10;49.39;99278.06;5174769;27;20464;-53
2023/05/29 06:05:37;;;;;;;12.82;3.38;;;;;;;27.41;49.24;99270.09;5174867;27;20092;-60
2023/05/29 06:08:05;;;;;;;10.18;3.72;;;;;;;27.62;48.42;99267.47;5174685;27;20052;-60
2023/05/29 06:10:31;;;;;;;10.00;3.22;;;;;;;27.94;47.98;99274.31;5174855;27;20051;-59
2023/05/29 06:12:57;;;;;;;10.95;3.40;;;;;;;27.78;48.01;99277.56;5174379;27;20090;-56
2023/05/29 06:15:23;;;;;;;9.63;3.15;;;;;;;28.09;48.03;99277.16;5174115;27;20137;-53
2023/05/29 06:17:51;;;;;;;14.43;3.92;;;;;;;28.23;47.26;99272.84;5174459;27;20078;-53
2023/05/29 06:20:17;;;;;;;11.02;3.10;;;;;;;28.22;47.46;99271.28;5174293;27;20046;-52
2023/05/29 06:22:43;;;;;;;9.90;3.20;;;;;;;28.42;46.87;99273.47;5174706;27;20062;-58
2023/05/29 06:25:09;;;;;;;10.30;3.20;;;;;;;27.60;47.18;99267.97;5174510;27;20476;-59
2023/05/29 06:27:35;;;;;;;10.35;3.47;;;;;;;27.33;48.57;99268.91;5164685;27;20141;-56
2023/05/29 06:30:01;;;;;;;9.65;3.38;;;;;;;28.11;47.86;99275.44;5160358;27;20073;-60
2023/05/29 06:32:28;;;;;;;13.48;3.55;;;;;;;27.84;46.69;99273.63;5160495;27;20074;-61
2023/05/29 06:34:54;;;;;;;6.97;2.60;;;;;;;27.96;46.29;99274.63;5160228;27;20047;-59
2023/05/29 06:37:20;;;;;;;5.80;2.35;;;;;;;28.50;46.45;99266.97;5160272;27;20047;-60
2023/05/29 06:39:46;;;;;;;8.27;3.10;;;;;;;28.90;46.05;99271.22;5160242;27;20142;-60
2023/05/29 06:42:12;;;;;;;8.98;2.78;;;;;;;29.12;45.99;99278.50;5160521;27;20064;-57
2023/05/29 06:44:38;;;;;;;8.38;1.95;;;;;;;28.62;45.16;99270.75;5159933;27;20042;-59
2023/05/29 06:47:05;;;;;;;6.90;2.10;;;;;;;29.22;44.62;99266.59;5160382;27;20093;-58
2023/05/29 06:49:31;;;;;;;6.10;1.80;;;;;;;29.27;44.66;99265.16;5160228;27;20046;-65
2023/05/29 06:51:57;;;;;;;6.70;1.70;;;;;;;29.33;44.63;99263.19;5159887;27;20085;-56
2023/05/29 06:54:23;;;;;;;6.10;1.80;;;;;;;28.79;44.16;99273.84;5160118;27;20356;-54
2023/05/29 06:56:49;;;;;;;8.15;2.38;;;;;;;29.06;44.83;99267.94;5159878;27;20137;-54
2023/05/29 06:59:16;;;;;;;7.65;2.33;;;;;;;29.11;44.54;99262.84;5159735;27;20089;-56
2023/05/29 07:01:42;;;;;;;8.00;2.10;;;;;;;29.37;43.57;99266.59;5160274;27;20150;-57
2023/05/29 07:04:08;;;;;;;6.68;1.92;;;;;;;29.59;43.81;99262.50;5160129;27;20087;-61
2023/05/29 07:06:33;;;;;;;9.93;2.05;;;;;;;28.35;44.85;99252.03;5159571;27;20105;-66
2023/05/29 07:09:00;;;;;;;13.25;2.75;;;;;;;28.90;44.69;99262.00;5159770;27;20335;-62
2023/05/29 07:11:26;;;;;;;8.40;2.42;;;;;;;29.59;44.05;99259.66;5159699;27;20065;-57
2023/05/29 07:13:53;;;;;;;10.07;2.35;;;;;;;29.84;43.47;99269.53;5159466;27;20367;-67
2023/05/29 07:16:20;;;;;;;3.65;1.92;;;;;;;28.60;44.31;99264.81;5159665;27;20061;-58
2023/05/29 07:18:45;;;;;;;9.88;2.13;;;;;;;29.05;43.79;99268.41;5160418;27;20047;-58
2023/05/29 07:21:11;;;;;;;6.10;1.80;;;;;;;28.91;43.55;99269.97;5160225;27;20047;-57
2023/05/29 07:23:37;;;;;;;8.55;2.13;;;;;;;29.65;43.27;99266.22;5159516;27;20438;-57
2023/05/29 07:26:03;;;;;;;2.55;1.55;;;;;;;29.42;43.17;99257.41;5159595;27;20141;-56
2023/05/29 07:28:29;;;;;;;8.13;2.10;;;;;;;29.40;43.24;99268.41;5158904;27;20053;-56
2023/05/29 07:30:55;;;;;;;9.48;1.65;;;;;;;29.26;42.22;99269.25;5159612;27;20078;-61
2023/05/29 07:33:21;;;;;;;4.25;2.00;;;;;;;28.69;43.09;99264.75;5159029;27;20047;-59
2023/05/29 07:35:48;;;;;;;6.20;1.60;;;;;;;28.88;42.39;99253.22;5159073;27;20051;-58
2023/05/29 07:38:14;;;;;;;6.05;2.40;;;;;;;29.07;42.45;99258.19;5157993;27;20051;-55
2023/05/29 07:40:39;;;;;;;9.75;2.30;;;;;;;28.89;43.55;99257.59;5159104;27;20058;-50
2023/05/29 07:43:05;;;;;;;97.75;8.63;;;;;;;29.75;42.40;99259.91;5159464;27;20142;-51
2023/05/29 07:45:31;;;;;;;5.03;2.00;;;;;;;29.76;42.06;99272.03;5159664;27;20078;-51
2023/05/29 07:47:57;;;;;;;8.23;1.85;;;;;;;29.81;42.39;99262.03;5159043;27;20404;-59
2023/05/29 07:50:24;;;;;;;3.55;1.80;;;;;;;29.73;42.13;99261.69;5158923;27;20050;-61
2023/05/29 07:52:50;;;;;;;4.68;2.05;;;;;;;29.97;41.97;99258.66;5159206;27;20356;-58
2023/05/29 07:55:16;;;;;;;4.30;1.88;;;;;;;29.70;42.74;99254.22;5158737;27;20054;-62
2023/05/29 07:57:42;;;;;;;7.72;1.90;;;;;;;29.87;42.12;99255.19;5158835;27;20096;-55
2023/05/29 08:00:13;;;;;;;9.60;1.83;;;;;;;30.07;41.68;99257.22;5158530;27;20053;-57
2023/05/29 08:02:39;;;;;;;4.90;1.95;;;;;;;28.95;42.86;99259.25;5158904;27;20114;-62
2023/05/29 08:05:07;;;;;;;6.88;1.80;;;;;;;29.84;42.36;99261.84;5158085;27;20456;-56
2023/05/29 08:07:34;;;;;;;9.65;1.98;;;;;;;29.81;41.54;99253.56;5159165;27;20360;-58
2023/05/29 08:10:00;;;;;;;4.93;1.80;;;;;;;30.33;41.86;99248.78;5158671;27;20046;-59
2023/05/29 08:12:26;;;;;;;13.65;1.83;;;;;;;30.17;42.00;99255.00;5159088;27;20054;-50
2023/05/29 08:14:52;;;;;;;9.88;2.45;;;;;;;29.96;42.45;99251.44;5158622;27;20485;-54
2023/05/29 08:17:18;;;;;;;9.48;1.80;;;;;;;29.82;42.05;99246.63;5158570;27;20159;-57
2023/05/29 08:19:43;;;;;;;7.95;2.15;;;;;;;30.08;42.37;99241.03;5158603;27;20404;-58
2023/05/29 08:22:14;;;;;;;4.97;2.08;;;;;;;29.47;41.47;99239.00;5158411;27;20450;-60
2023/05/29 08:24:40;;;;;;;9.57;2.40;;;;;;;29.66;41.42;99239.53;5158529;27;20426;-52
2023/05/29 08:27:06;;;;;;;5.15;1.92;;;;;;;29.41;41.66;99250.19;5158377;27;20080;-52
2023/05/29 08:29:32;;;;;;;8.23;2.53;;;;;;;29.13;43.24;99240.56;5158684;27;20392;-54
2023/05/29 08:31:58;;;;;;;10.68;2.05;;;;;;;28.96;42.50;99243.09;5158267;27;20412;-55
2023/05/29 08:34:24;;;;;;;12.68;3.17;;;;;;;30.24;42.37;99235.59;5158529;27;20051;-59
2023/05/29 08:36:51;;;;;;;12.18;2.50;;;;;;;29.42;42.35;99231.19;5157964;27;20055;-56
2023/05/29 08:39:17;;;;;;;9.45;2.20;;;;;;;29.91;42.34;99232.38;5158805;27;20046;-55
2023/05/29 08:42:01;;;;;;;8.63;1.90;;;;;;;30.52;41.51;99225.81;5157895;27;20047;-56
2023/05/29 08:44:31;;;;;;;8.07;1.88;;;;;;;29.93;42.48;99229.84;5158171;27;20054;-59
2023/05/29 08:47:01;;;;;;;7.60;1.90;;;;;;;29.53;42.83;99232.16;5157945;27;20062;-55
2023/05/29 08:49:30;;;;;;;6.82;1.95;;;;;;;30.25;41.94;99225.03;5157508;27;20100;-55
2023/05/29 08:52:02;;;;;;;6.43;1.90;;;;;;;30.15;41.22;99224.41;5157895;27;20392;-57
2023/05/29 08:54:31;;;;;;;5.67;1.80;;;;;;;30.46;41.83;99215.22;5158054;27;20070;-62
2023/05/29 08:56:58;;;;;;;16.63;3.33;;;;;;;30.33;41.79;99216.91;5159045;27;20120;-64
2023/05/29 08:59:25;;;;;;;10.45;2.55;;;;;;;30.60;41.25;99207.13;5158402;27;20091;-59
2023/05/29 09:01:51;;;;;;;7.10;2.13;;;;;;;30.52;40.64;99208.84;5158088;27;20042;-55
2023/05/29 09:04:18;;;;;;;6.95;2.13;;;;;;;30.34;41.53;99207.91;5157867;27;20187;-56
2023/05/29 09:06:45;;;;;;;8.05;3.45;;;;;;;30.24;41.96;99209.34;5158648;27;20054;-66
2023/05/29 09:09:11;;;;;;;11.82;3.53;;;;;;;28.63;41.64;99207.44;5157932;27;20047;-59
2023/05/29 09:11:37;;;;;;;6.95;2.45;;;;;;;27.88;42.52;99209.41;5157813;27;20059;-61
2023/05/29 09:14:03;;;;;;;2.60;1.83;;;;;;;28.10;42.89;99194.97;5157734;27;20053;-60
2023/05/29 09:16:29;;;;;;;11.65;4.50;;;;;;;29.21;42.49;99196.53;5157445;27;20103;-60
2023/05/29 09:19:05;;;;;;;17.08;2.15;;;;;;;28.63;42.46;99195.41;5158278;27;20134;-62
2023/05/29 09:21:33;;;;;;;8.43;2.50;;;;;;;27.32;42.35;99194.16;5157682;27;20047;-60
2023/05/29 09:24:03;;;;;;;14.80;2.78;;;;;;;28.00;42.17;99181.47;5157938;27;20412;-61
2023/05/29 09:26:30;;;;;;;10.07;2.40;;;;;;;28.78;41.99;99179.19;5157409;27;20389;-59
2023/05/29 09:28:56;;;;;;;5.55;2.08;;;;;;;29.63;41.89;99187.63;5157914;27;20431;-54
2023/05/29 09:31:23;;;;;;;8.43;2.30;;;;;;;29.37;41.30;99179.03;5157410;27;20110;-62
2023/05/29 09:33:49;;;;;;;6.70;2.28;;;;;;;29.44;41.60;99183.50;5157438;27;20359;-61
2023/05/29 09:36:20;;;;;;;15.82;2.97;;;;;;;27.99;42.40;99186.31;5157535;27;20107;-58
2023/05/29 09:38:46;;;;;;;7.63;1.67;;;;;;;28.47;41.55;99183.34;5157453;27;20051;-52
2023/05/29 09:41:12;;;;;;;6.80;1.90;;;;;;;27.76;42.44;99176.66;5157631;27;20419;-51
2023/05/29 09:43:40;;;;;;;8.52;2.22;;;;;;;28.80;42.17;99176.69;5157126;27;20100;-55
2023/05/29 09:46:06;;;;;;;4.13;2.03;;;;;;;28.74;41.87;99175.81;5157509;27;20054;-57
2023/05/29 09:48:35;;;;;;;8.25;2.28;;;;;;;28.87;41.98;99170.63;5157248;27;20107;-56
2023/05/29 09:51:02;;;;;;;9.88;2.10;;;;;;;28.92;42.28;99163.50;5157559;27;20046;-58
2023/05/29 09:53:29;;;;;;;10.95;2.20;;;;;;;28.97;43.32;99172.06;5157063;27;20101;-60
2023/05/29 09:55:56;;;;;;;7.30;2.80;;;;;;;29.16;42.60;99174.63;5157347;27;20426;-58
2023/05/29 09:58:23;;;;;;;6.97;1.83;;;;;;;28.95;42.63;99177.41;5156967;27;20467;-58
2023/05/29 10:00:51;;;;;;;16.27;2.00;;;;;;;27.55;43.13;99178.50;5157141;27;20055;-57
2023/05/29 10:03:17;;;;;;;6.00;2.30;;;;;;;28.31;42.54;99175.34;5159874;27;20097;-58
2023/05/29 10:05:49;;;;;;;9.23;2.13;;;;;;;28.37;42.75;99170.59;5160389;27;20116;-59
2023/05/29 10:08:17;;;;;;;7.43;2.00;;;;;;;27.85;42.49;99159.66;5160507;27;20126;-59
2023/05/29 10:10:46;;;;;;;8.13;2.17;;;;;;;27.98;42.68;99167.06;5160204;27;20408;-60
2023/05/29 10:13:13;;;;;;;8.63;1.90;;;;;;;27.60;44.24;99163.00;5160685;27;20054;-52
2023/05/29 10:15:41;;;;;;;5.25;2.22;;;;;;;27.48;42.91;99161.22;5160434;27;20362;-61
2023/05/29 10:18:13;;;;;;;9.52;3.20;;;;;;;27.72;43.60;99161.16;5161364;27;20146;-56
2023/05/29 10:20:42;;;;;;;6.55;2.30;;;;;;;27.84;43.25;99160.94;5160901;27;20133;-58
2023/05/29 10:23:10;;;;;;;7.88;2.17;;;;;;;28.37;43.80;99162.91;5160654;27;20404;-55
2023/05/29 10:25:37;;;;;;;9.63;2.42;;;;;;;28.04;43.63;99151.81;5160497;27;20050;-51
2023/05/29 10:28:04;;;;;;;4.85;1.92;;;;;;;26.95;44.46;99159.78;5160242;27;20431;-56
2023/05/29 10:30:40;;;;;;;9.02;2.38;;;;;;;27.79;43.54;99147.53;5160437;27;20057;-56
2023/05/29 10:33:26;;;;;;;6.35;2.13;;;;;;;27.44;44.06;99144.50;5160295;27;20326;-52
2023/05/29 10:36:01;;;;;;;6.75;2.63;;;;;;;28.15;44.21;99145.59;5160373;27;20046;-56
2023/05/29 10:38:28;;;;;;;9.93;2.25;;;;;;;28.12;45.04;99140.94;5160032;27;20133;-58
2023/05/29 10:40:54;;;;;;;8.70;2.28;;;;;;;27.99;45.11;99148.88;5160479;27;20047;-53
2023/05/29 10:43:34;;;;;;;11.85;2.40;;;;;;;27.97;44.74;99142.97;5159678;27;20061;-56
2023/05/29 10:46:00;;;;;;;7.72;1.98;;;;;;;28.20;44.01;99146.97;5160044;27;20194;-61
2023/05/29 10:48:49;;;;;;;9.77;2.50;;;;;;;27.68;44.59;99136.00;5160068;27;20141;-56
2023/05/29 10:51:28;;;;;;;5.70;2.30;;;;;;;26.29;45.23;99140.81;5154461;27;20111;-60
2023/05/29 10:53:55;;;;;;;9.23;2.17;;;;;;;26.40;45.74;99143.16;5160195;27;20058;-57
2023/05/29 10:56:24;;;;;;;9.50;1.95;;;;;;;26.12;45.60;99136.81;5159705;27;20072;-59
2023/05/29 10:58:54;;;;;;;8.50;2.38;;;;;;;25.38;46.12;99128.44;5160036;27;20057;-58
2023/05/29 11:01:23;;;;;;;13.10;2.72;;;;;;;25.33;47.84;99129.84;5159512;27;20046;-60
2023/05/29 11:03:49;;;;;;;11.93;2.40;;;;;;;24.92;48.05;99133.16;5159570;27;20096;-52
2023/05/29 11:06:19;;;;;;;7.22;2.05;;;;;;;24.46;47.87;99121.78;5159330;27;20118;-54
2023/05/29 11:08:46;;;;;;;7.22;2.10;;;;;;;23.71;48.05;99117.00;5159332;27;20385;-60
2023/05/29 11:11:13;;;;;;;10.10;2.38;;;;;;;23.79;48.68;99117.50;5159668;27;20452;-54
2023/05/29 11:13:40;;;;;;;13.77;2.25;;;;;;;24.29;48.64;99112.81;5159234;27;20058;-54
2023/05/29 11:16:19;;;;;;;10.77;2.60;;;;;;;24.84;48.87;99118.66;5159564;27;20077;-59
2023/05/29 11:18:46;;;;;;;5.53;2.28;;;;;;;24.81;48.42;99117.56;5159405;27;20054;-55
2023/05/29 11:21:23;;;;;;;6.03;1.95;;;;;;;24.87;47.75;99118.53;5159663;27;20396;-52
2023/05/29 11:23:51;;;;;;;9.10;2.80;;;;;;;24.79;48.44;99120.06;5159309;27;20305;-56
2023/05/29 11:26:20;;;;;;;11.32;3.03;;;;;;;23.94;49.40;99122.13;5159158;27;20054;-60
2023/05/29 11:28:46;;;;;;;10.68;2.05;;;;;;;24.53;48.54;99115.94;5159458;27;20148;-51